Time;durP1;ratioP1;P1;durP2;ratioP2;P2;SDS_P1;SDS_P2;PMS_P1;PMS_P2;Temp;Humidity;BMP_temperature;BMP_pressure;BME280_temperature;BME280_humidity;BME280_pressure;Samples;Min_cycle;Max_cycle;Signal;HPM_P1;HPM_P2
2021/08/22 00:01:07;;;;;;;1.40;1.20;;;;;;;22.28;57.88;101480.09;4908179;29;20058;-73
2021/08/22 00:03:32;;;;;;;2.10;1.42;;;;;;;22.31;57.72;101478.28;4923917;29;20031;-73
2021/08/22 00:05:57;;;;;;;1.80;1.00;;;;;;;22.31;57.57;101475.66;4923848;29;20474;-73
2021/08/22 00:08:23;;;;;;;1.98;1.35;;;;;;;22.26;57.73;101469.56;4939614;29;20490;-73
2021/08/22 00:10:48;;;;;;;1.38;1.08;;;;;;;22.25;57.83;101464.28;4956917;29;20480;-73
2021/08/22 00:13:14;;;;;;;1.92;1.52;;;;;;;22.29;57.81;101469.53;4939701;29;20069;-73
2021/08/22 00:15:39;;;;;;;1.17;0.90;;;;;;;22.31;57.83;101475.66;4939686;29;20031;-73
2021/08/22 00:18:04;;;;;;;1.27;1.08;;;;;;;22.28;57.72;101473.06;4939580;29;20054;-73
2021/08/22 00:20:30;;;;;;;2.30;1.42;;;;;;;22.33;57.74;101478.28;4956651;29;20027;-73
2021/08/22 00:22:55;;;;;;;1.30;0.90;;;;;;;22.28;57.70;101474.81;4939428;29;20039;-73
2021/08/22 00:25:20;;;;;;;2.13;1.60;;;;;;;22.30;57.64;101483.56;4939368;29;20118;-73
2021/08/22 00:27:46;;;;;;;2.22;1.83;;;;;;;22.31;57.81;101475.66;4923527;29;20074;-73
2021/08/22 00:30:11;;;;;;;2.63;1.13;;;;;;;22.22;57.78;101456.41;4956452;29;20489;-73
2021/08/22 00:32:37;;;;;;;1.48;1.25;;;;;;;22.31;57.88;101475.66;4956368;29;20115;-73
2021/08/22 00:35:02;;;;;;;1.70;1.10;;;;;;;22.28;57.75;101459.88;4939222;29;20130;-73
2021/08/22 00:37:29;;;;;;;1.35;1.23;;;;;;;22.25;57.79;101457.28;4907642;29;20044;-73
2021/08/22 00:39:55;;;;;;;1.38;1.00;;;;;;;22.32;57.71;101466.88;4939187;29;20102;-73
2021/08/22 00:42:21;;;;;;;2.35;1.70;;;;;;;22.28;57.75;101464.28;4938887;29;20051;-73
2021/08/22 00:44:46;;;;;;;1.60;1.10;;;;;;;22.31;57.78;101466.88;4956547;29;20393;-73
2021/08/22 00:47:12;;;;;;;1.65;1.33;;;;;;;22.31;57.82;101464.25;4956303;29;20031;-73
2021/08/22 00:49:38;;;;;;;1.13;0.80;;;;;;;22.28;57.98;101454.59;4956380;29;20027;-73
2021/08/22 00:52:05;;;;;;;1.50;1.10;;;;;;;22.27;57.80;101454.63;4956203;29;20031;-73
2021/08/22 00:54:33;;;;;;;1.35;1.10;;;;;;;22.28;57.97;101449.34;4956210;29;20114;-73
2021/08/22 00:56:58;;;;;;;1.77;1.17;;;;;;;22.30;57.85;101452.84;4939103;29;20027;-73
2021/08/22 00:59:24;;;;;;;1.50;1.20;;;;;;;22.28;57.96;101451.09;4956700;29;20049;-74
2021/08/22 01:01:52;;;;;;;1.75;1.30;;;;;;;22.31;57.92;101456.34;4957784;29;20037;-73
2021/08/22 01:04:22;;;;;;;1.55;1.20;;;;;;;22.31;57.82;101451.94;4956129;29;20086;-73
2021/08/22 01:07:06;;;;;;;1.35;1.00;;;;;;;22.31;57.94;101445.81;4956014;29;20035;-73
2021/08/22 01:09:50;;;;;;;1.40;1.23;;;;;;;22.27;57.91;101438.81;4938930;29;20023;-73
2021/08/22 01:12:29;;;;;;;1.77;1.33;;;;;;;22.30;57.75;101444.94;4956001;29;20023;-73
2021/08/22 01:15:02;;;;;;;1.40;1.00;;;;;;;22.26;58.05;101437.06;4938615;29;20027;-73
2021/08/22 01:17:30;;;;;;;1.15;0.95;;;;;;;22.27;57.97;101433.53;4955724;29;20382;-73
2021/08/22 01:20:05;;;;;;;1.67;1.35;;;;;;;22.27;57.76;101434.41;4955765;29;20146;-73
2021/08/22 01:22:32;;;;;;;;;;;;;;;22.30;57.91;101437.03;4955775;29;20355;-73
2021/08/22 01:25:00;;;;;;;2.10;1.48;;;;;;;22.28;58.00;101440.56;4938444;29;20056;-73
2021/08/22 01:27:26;;;;;;;2.10;1.30;;;;;;;22.26;57.94;101429.16;4938573;29;20067;-73
2021/08/22 01:29:58;;;;;;;1.65;1.15;;;;;;;22.29;57.94;101437.91;4922867;29;20039;-73
2021/08/22 01:32:23;;;;;;;1.58;1.13;;;;;;;22.28;57.93;101428.25;4955442;29;20508;-73
2021/08/22 01:34:49;;;;;;;1.65;1.02;;;;;;;22.21;57.82;101418.66;4938601;29;20039;-73
2021/08/22 01:37:17;;;;;;;1.50;1.00;;;;;;;22.29;57.89;101426.50;4922492;29;20044;-73
2021/08/22 01:39:45;;;;;;;2.85;1.25;;;;;;;22.22;57.78;101417.78;4955508;29;20063;-73
2021/08/22 01:42:11;;;;;;;1.35;1.15;;;;;;;22.29;57.94;101435.28;4922452;29;20474;-73
2021/08/22 01:44:38;;;;;;;1.33;1.13;;;;;;;22.30;57.84;101433.50;4955431;29;20063;-73
2021/08/22 01:47:06;;;;;;;1.05;0.82;;;;;;;22.28;57.90;101425.63;4955561;29;20433;-73
2021/08/22 01:49:32;;;;;;;1.30;1.00;;;;;;;22.24;57.86;101416.00;4955479;29;20023;-73
2021/08/22 01:51:58;;;;;;;1.67;1.35;;;;;;;22.23;57.97;101418.66;4938159;28;20019;-73
2021/08/22 01:54:23;;;;;;;1.33;1.08;;;;;;;22.30;57.89;101421.22;4958650;29;20053;-73
2021/08/22 01:56:49;;;;;;;1.60;1.15;;;;;;;22.23;58.02;101414.25;4942147;29;20031;-73
2021/08/22 01:59:14;;;;;;;1.23;0.90;;;;;;;22.28;58.04;101423.00;4942273;29;20090;-73
2021/08/22 02:01:39;;;;;;;1.27;1.00;;;;;;;22.29;57.87;101427.38;4926079;29;20373;-73
2021/08/22 02:04:20;;;;;;;1.52;1.20;;;;;;;22.29;57.79;101429.13;4959249;29;20031;-73
2021/08/22 02:07:13;;;;;;;2.00;1.52;;;;;;;22.28;58.02;101433.53;4941927;29;20027;-73
2021/08/22 02:09:57;;;;;;;1.63;1.43;;;;;;;22.30;57.93;101428.25;4941934;29;20086;-73
2021/08/22 02:12:22;;;;;;;1.75;1.48;;;;;;;22.30;57.83;101428.25;4959150;29;20019;-73
2021/08/22 02:14:56;;;;;;;1.60;1.35;;;;;;;22.30;57.88;101422.97;4941804;29;20134;-73
2021/08/22 02:17:26;;;;;;;1.05;0.90;;;;;;;22.27;57.85;101420.38;4942006;29;20390;-73
2021/08/22 02:19:54;;;;;;;1.33;0.90;;;;;;;22.28;57.98;101415.09;4958879;29;20078;-73
2021/08/22 02:22:20;;;;;;;1.42;1.00;;;;;;;22.28;57.92;101411.56;4958767;29;20031;-73
2021/08/22 02:24:46;;;;;;;1.63;1.10;;;;;;;22.22;57.94;101409.00;4958715;29;20078;-73
2021/08/22 02:27:12;;;;;;;1.45;1.00;;;;;;;22.24;57.94;101415.13;4941889;29;20486;-73
2021/08/22 02:29:51;;;;;;;1.20;1.08;;;;;;;22.28;57.98;101419.47;4941770;29;20055;-73
2021/08/22 02:32:17;;;;;;;2.03;1.45;;;;;;;22.28;57.94;101420.34;4941425;29;20110;-73
2021/08/22 02:34:43;;;;;;;1.38;1.00;;;;;;;22.25;58.02;101415.09;4925481;29;20027;-73
2021/08/22 02:37:09;;;;;;;1.52;1.15;;;;;;;22.24;57.97;101410.72;4941267;29;20110;-73
2021/08/22 02:39:36;;;;;;;1.30;1.10;;;;;;;22.27;57.98;101421.25;4958633;29;20038;-73
2021/08/22 02:42:01;;;;;;;1.58;1.08;;;;;;;22.27;57.90;101418.59;4941366;29;20486;-73
2021/08/22 02:44:27;;;;;;;1.45;1.05;;;;;;;22.27;57.99;101417.72;4941646;29;20050;-73
2021/08/22 02:46:52;;;;;;;1.05;0.90;;;;;;;22.17;58.06;101403.81;4941479;29;20023;-73
2021/08/22 02:49:17;;;;;;;1.23;0.95;;;;;;;22.26;58.04;101414.22;4941201;29;20438;-73
2021/08/22 02:51:43;;;;;;;1.45;1.20;;;;;;;22.27;57.94;101423.88;4958450;29;20031;-73
2021/08/22 02:54:08;;;;;;;1.80;1.10;;;;;;;22.26;58.00;101411.59;4925291;29;20126;-73
2021/08/22 02:56:34;;;;;;;1.63;1.05;;;;;;;22.26;58.06;101411.59;4941379;29;20037;-73
2021/08/22 02:58:59;;;;;;;1.63;1.23;;;;;;;22.25;57.86;101409.84;4958447;29;20047;-73
2021/08/22 03:01:24;;;;;;;0.98;0.82;;;;;;;22.26;58.00;101406.31;4925317;29;20437;-75
2021/08/22 03:03:50;;;;;;;1.20;0.88;;;;;;;22.26;58.00;101408.09;4925390;29;20085;-75
2021/08/22 03:06:15;;;;;;;1.77;1.20;;;;;;;22.28;57.84;101406.31;4958244;29;20027;-75
2021/08/22 03:08:40;;;;;;;1.30;1.02;;;;;;;22.25;57.95;101401.94;4958151;29;20110;-75
2021/08/22 03:11:06;;;;;;;1.60;1.20;;;;;;;22.28;58.19;101415.09;4941162;29;20499;-75
2021/08/22 03:13:31;;;;;;;1.33;0.90;;;;;;;22.28;57.91;101411.56;4941013;29;20031;-75
2021/08/22 03:15:57;;;;;;;1.48;1.00;;;;;;;22.21;57.93;101401.97;4958192;29;20039;-75
2021/08/22 03:18:22;;;;;;;0.95;0.85;;;;;;;22.24;57.92;101413.38;4940889;29;20046;-75
2021/08/22 03:20:47;;;;;;;1.40;0.80;;;;;;;22.26;57.83;101411.59;4909110;29;20079;-75
2021/08/22 03:23:13;;;;;;;1.38;0.98;;;;;;;22.25;58.01;101412.47;4940826;29;20130;-75
2021/08/22 03:25:38;;;;;;;1.48;1.15;;;;;;;22.26;57.96;101401.06;4957868;29;19919;-75
2021/08/22 03:28:04;;;;;;;1.67;1.58;;;;;;;22.23;57.85;101401.06;4957854;29;20066;-75
2021/08/22 03:30:29;;;;;;;1.40;1.00;;;;;;;22.27;58.00;101412.47;4924872;29;20031;-75
2021/08/22 03:32:55;;;;;;;1.15;0.88;;;;;;;22.25;57.92;101409.84;4924605;29;20016;-75
2021/08/22 03:35:21;;;;;;;1.38;1.02;;;;;;;22.24;57.89;101405.47;4957660;29;20498;-75
2021/08/22 03:37:46;;;;;;;1.42;1.05;;;;;;;22.26;58.05;101410.72;4940541;29;20047;-75
2021/08/22 03:40:12;;;;;;;1.50;1.13;;;;;;;22.22;57.88;101404.59;4940489;29;20039;-75
2021/08/22 03:42:37;;;;;;;1.35;1.25;;;;;;;22.20;57.85;101401.09;4957590;29;20031;-75
2021/08/22 03:45:03;;;;;;;1.13;0.85;;;;;;;22.23;57.89;101406.34;4957619;29;20045;-75
2021/08/22 03:47:28;;;;;;;1.27;0.98;;;;;;;22.23;57.95;101406.34;4940144;29;20553;-75
2021/08/22 03:49:54;;;;;;;1.20;1.05;;;;;;;22.24;57.89;101402.81;4908693;29;20465;-75
2021/08/22 03:52:19;;;;;;;1.60;1.10;;;;;;;22.22;58.07;101401.97;4939961;29;20023;-75
2021/08/22 03:54:44;;;;;;;1.45;1.00;;;;;;;22.19;58.03;101402.03;4939979;29;19918;-75
2021/08/22 03:57:10;;;;;;;1.58;0.98;;;;;;;22.25;57.86;101411.59;4925841;29;19965;-75
2021/08/22 03:59:35;;;;;;;1.25;1.05;;;;;;;22.24;57.93;101408.09;4959410;29;20110;-75
2021/08/22 04:02:00;;;;;;;1.52;1.33;;;;;;;22.19;57.96;101402.03;4958393;29;20470;-75
2021/08/22 04:04:26;;;;;;;1.60;1.20;;;;;;;22.24;57.95;101413.38;4910099;29;20498;-75
2021/08/22 04:06:52;;;;;;;1.20;0.88;;;;;;;22.23;58.00;101405.47;4942615;29;20487;-75
2021/08/22 04:09:18;;;;;;;0.98;0.75;;;;;;;22.25;57.93;101411.59;4941085;29;20042;-75
2021/08/22 04:11:44;;;;;;;1.30;0.90;;;;;;;22.23;57.92;101406.34;4957197;29;20385;-75
2021/08/22 04:14:10;;;;;;;1.30;1.20;;;;;;;22.24;57.89;101408.09;4957390;29;20034;-75
2021/08/22 04:16:36;;;;;;;1.23;0.93;;;;;;;22.24;57.95;101408.09;4939257;29;20039;-75
2021/08/22 04:19:01;;;;;;;1.45;1.10;;;;;;;22.21;57.93;101400.22;4923892;29;20031;-75
2021/08/22 04:21:27;;;;;;;1.15;0.80;;;;;;;22.22;57.88;101395.81;4924046;29;20122;-75
2021/08/22 04:23:52;;;;;;;1.50;1.00;;;;;;;22.24;57.84;101404.59;4940280;29;20423;-75
2021/08/22 04:26:18;;;;;;;1.17;1.00;;;;;;;22.24;57.95;101397.56;4958958;29;20010;-75
2021/08/22 04:28:43;;;;;;;1.45;1.08;;;;;;;22.23;57.91;101401.06;4958104;29;20117;-74
2021/08/22 04:31:08;;;;;;;3.17;1.80;;;;;;;22.24;57.93;101401.94;4940027;29;20027;-75
2021/08/22 04:33:34;;;;;;;1.23;0.90;;;;;;;22.15;57.86;101395.03;4939663;29;20035;-75
2021/08/22 04:35:59;;;;;;;1.35;0.90;;;;;;;22.21;57.88;101400.22;4923524;29;20055;-75
2021/08/22 04:38:25;;;;;;;1.45;1.10;;;;;;;22.22;57.91;101404.59;4956441;29;20031;-75
2021/08/22 04:40:50;;;;;;;1.60;1.15;;;;;;;22.21;57.86;101396.72;4939229;29;20434;-75
2021/08/22 04:43:16;;;;;;;0.98;0.80;;;;;;;22.17;57.99;101389.75;4939420;29;20031;-75
2021/08/22 04:45:41;;;;;;;1.58;1.38;;;;;;;22.17;57.55;101389.75;4939250;29;20117;-75
2021/08/22 04:48:06;;;;;;;0.63;0.52;;;;;;;22.22;57.84;101399.34;4939945;29;20107;-75
2021/08/22 04:50:32;;;;;;;1.33;1.10;;;;;;;22.21;57.84;101388.81;4957349;29;20385;-75
2021/08/22 04:52:57;;;;;;;0.88;0.70;;;;;;;22.24;58.02;101400.19;4957511;29;20058;-75
2021/08/22 04:55:23;;;;;;;1.30;1.00;;;;;;;22.23;58.02;101408.09;4959467;29;20039;-75
2021/08/22 04:57:48;;;;;;;1.30;0.90;;;;;;;22.17;58.04;101389.75;4957831;29;20474;-75
2021/08/22 05:00:14;;;;;;;1.23;1.00;;;;;;;22.20;57.79;101401.09;4939221;29;20371;-75
2021/08/22 05:02:39;;;;;;;0.88;0.75;;;;;;;22.23;57.92;101403.72;4939371;29;20046;-75
2021/08/22 05:05:05;;;;;;;1.02;0.93;;;;;;;22.18;57.99;101392.38;4956208;29;20031;-75
2021/08/22 05:07:30;;;;;;;1.60;1.00;;;;;;;22.22;58.00;101396.69;4923009;29;20557;-75
2021/08/22 05:09:56;;;;;;;1.58;1.10;;;;;;;22.23;57.95;101400.22;4938734;29;20035;-75
2021/08/22 05:12:21;;;;;;;1.88;1.23;;;;;;;22.19;57.91;101401.16;4938935;29;20042;-75
2021/08/22 05:14:47;;;;;;;1.25;0.80;;;;;;;22.20;58.02;101403.75;4938566;29;20023;-75
2021/08/22 05:17:12;;;;;;;1.25;0.93;;;;;;;22.22;57.83;101406.38;4938655;29;20093;-75
2021/08/22 05:19:38;;;;;;;0.95;0.80;;;;;;;22.16;58.01;101394.16;4938541;29;20038;-75
2021/08/22 05:22:04;;;;;;;1.45;1.00;;;;;;;22.23;57.90;101414.25;4922836;29;20119;-75
2021/08/22 05:24:29;;;;;;;1.33;0.90;;;;;;;22.20;57.78;101405.53;4955796;29;20038;-75
2021/08/22 05:26:55;;;;;;;1.17;1.00;;;;;;;22.22;57.96;101409.00;4938238;29;20043;-75
2021/08/22 05:29:21;;;;;;;1.60;1.17;;;;;;;22.17;57.99;101406.44;4955403;29;20031;-75
2021/08/22 05:31:46;;;;;;;1.17;0.82;;;;;;;22.23;57.92;101416.88;4938379;29;20114;-75
2021/08/22 05:34:12;;;;;;;1.42;1.20;;;;;;;22.20;58.03;101405.53;4955616;29;20122;-75
2021/08/22 05:36:37;;;;;;;1.60;1.05;;;;;;;22.21;57.99;101407.25;4955529;29;19969;-75
2021/08/22 05:39:04;;;;;;;1.20;0.95;;;;;;;22.25;57.81;101416.88;4955728;29;20027;-75
2021/08/22 05:41:29;;;;;;;1.15;0.90;;;;;;;22.25;57.96;101416.88;4938583;29;20063;-75
2021/08/22 05:43:54;;;;;;;1.08;0.73;;;;;;;22.21;57.92;101409.88;4938296;29;20082;-75
2021/08/22 05:46:20;;;;;;;1.30;1.05;;;;;;;22.22;58.04;101411.63;4955531;29;20493;-75
2021/08/22 05:48:45;;;;;;;2.05;1.10;;;;;;;22.19;58.04;101407.28;4922380;29;20031;-75
2021/08/22 05:51:16;;;;;;;1.65;1.33;;;;;;;22.24;58.02;101420.41;4938113;29;20058;-75
2021/08/22 05:53:43;;;;;;;1.60;1.40;;;;;;;22.23;58.03;101416.00;4955365;29;20166;-75
2021/08/22 05:56:09;;;;;;;1.15;0.70;;;;;;;22.23;58.08;101419.53;4955424;29;20043;-74
2021/08/22 05:58:34;;;;;;;1.33;0.93;;;;;;;22.16;58.05;101409.97;4938358;29;20529;-75
2021/08/22 06:01:00;;;;;;;1.80;1.38;;;;;;;22.14;58.01;101401.19;4955447;29;20040;-75
2021/08/22 06:03:25;;;;;;;1.90;1.20;;;;;;;22.15;58.09;101410.84;4922280;29;20031;-75
2021/08/22 06:05:51;;;;;;;1.67;0.90;;;;;;;22.23;58.08;101422.16;4922322;29;20028;-75
2021/08/22 06:08:17;;;;;;;2.38;1.60;;;;;;;22.21;57.92;101423.94;4955468;29;20032;-75
2021/08/22 06:10:42;;;;;;;1.58;0.80;;;;;;;22.18;57.74;101415.22;4922363;29;20042;-75
2021/08/22 06:13:08;;;;;;;1.33;0.80;;;;;;;22.23;57.94;101429.19;4955458;29;20023;-75
2021/08/22 06:15:33;;;;;;;1.63;1.20;;;;;;;22.23;57.98;101426.56;4938272;29;20381;-75
2021/08/22 06:17:58;;;;;;;1.73;0.85;;;;;;;22.20;57.90;101423.97;4955243;29;20019;-75
2021/08/22 06:20:24;;;;;;;1.25;0.95;;;;;;;22.20;58.12;101416.06;4955366;29;20039;-75
2021/08/22 06:22:49;;;;;;;1.63;1.10;;;;;;;22.23;58.01;101423.91;4938053;29;20046;-75
2021/08/22 06:25:15;;;;;;;1.40;1.27;;;;;;;22.21;57.85;101421.28;4955138;29;20493;-75
2021/08/22 06:27:40;;;;;;;1.63;1.20;;;;;;;22.20;57.91;101422.19;4937867;29;20042;-75
2021/08/22 06:30:06;;;;;;;0.75;0.70;;;;;;;22.17;57.99;101416.09;4922246;29;20473;-75
2021/08/22 06:32:31;;;;;;;1.23;0.80;;;;;;;22.22;58.04;101425.69;4938017;29;20055;-75
2021/08/22 06:34:57;;;;;;;1.15;0.90;;;;;;;22.18;57.86;101417.84;4955101;29;20055;-75
2021/08/22 06:37:22;;;;;;;2.20;1.30;;;;;;;22.18;58.07;101423.13;4937742;29;20091;-75
2021/08/22 06:39:48;;;;;;;1.17;0.85;;;;;;;22.18;58.03;101429.25;4956959;28;20267;-75
2021/08/22 06:42:14;;;;;;;1.38;0.90;;;;;;;22.22;57.96;101430.06;4925747;29;20035;-74
2021/08/22 06:44:43;;;;;;;1.20;1.00;;;;;;;22.17;58.01;101424.00;4942108;29;20038;-74
2021/08/22 06:47:15;;;;;;;1.73;1.07;;;;;;;22.23;58.19;101434.44;4939892;29;20501;-75
2021/08/22 06:49:40;;;;;;;1.70;1.00;;;;;;;22.16;58.12;101422.25;4942131;29;20086;-75
2021/08/22 06:52:07;;;;;;;1.40;0.98;;;;;;;22.18;58.05;101425.75;4958590;29;20027;-75
2021/08/22 06:54:33;;;;;;;1.73;1.20;;;;;;;22.23;57.97;101434.44;4941611;29;20035;-75
2021/08/22 06:56:58;;;;;;;1.65;1.20;;;;;;;22.23;58.01;101437.97;4941300;29;20041;-75
2021/08/22 06:59:24;;;;;;;1.30;1.00;;;;;;;22.19;57.88;101425.75;4958272;29;20473;-75
2021/08/22 07:01:49;;;;;;;0.90;0.80;;;;;;;22.23;58.01;101445.88;4958171;29;20039;-75
2021/08/22 07:04:14;;;;;;;1.45;1.15;;;;;;;22.22;58.02;101438.84;4940913;29;20035;-75
2021/08/22 07:06:40;;;;;;;1.80;1.20;;;;;;;22.21;57.98;101436.22;4958191;29;20118;-75
2021/08/22 07:09:05;;;;;;;1.23;0.93;;;;;;;22.18;57.94;101434.53;4925031;29;20035;-75
2021/08/22 07:11:30;;;;;;;1.45;0.95;;;;;;;22.25;58.01;101451.13;4925814;29;20087;-75
2021/08/22 07:13:56;;;;;;;1.50;0.98;;;;;;;22.20;58.12;101443.25;4942900;29;20027;-75
2021/08/22 07:16:21;;;;;;;1.52;1.40;;;;;;;22.17;57.94;101430.16;4926600;29;20031;-75
2021/08/22 07:18:47;;;;;;;1.42;1.10;;;;;;;22.20;58.11;101437.16;4958563;29;20066;-75
2021/08/22 07:21:15;;;;;;;1.48;1.10;;;;;;;22.25;58.01;101451.13;4943117;29;20032;-75
2021/08/22 07:23:42;;;;;;;1.20;1.00;;;;;;;22.19;58.05;101441.53;4960529;29;20110;-75
2021/08/22 07:26:08;;;;;;;1.40;1.20;;;;;;;22.22;57.71;101443.25;4941611;29;20085;-75
2021/08/22 07:28:33;;;;;;;1.67;0.95;;;;;;;22.20;57.93;101445.88;4924800;29;20126;-75
2021/08/22 07:31:04;;;;;;;1.00;0.80;;;;;;;22.22;58.03;101452.03;4940787;29;20039;-75
2021/08/22 07:33:30;;;;;;;1.40;0.90;;;;;;;22.22;58.04;101454.66;4940275;29;20035;-75
2021/08/22 07:35:55;;;;;;;1.40;1.00;;;;;;;22.20;58.09;101451.16;4940403;29;20462;-75
2021/08/22 07:38:20;;;;;;;1.55;1.10;;;;;;;22.21;57.96;101452.03;4940381;29;20039;-75
2021/08/22 07:40:46;;;;;;;1.48;1.00;;;;;;;22.23;58.27;101459.03;4924463;29;20041;-75
2021/08/22 07:43:11;;;;;;;1.05;0.85;;;;;;;22.18;58.19;101454.72;4924598;29;20035;-75
2021/08/22 07:45:36;;;;;;;1.77;1.00;;;;;;;22.21;58.02;101457.31;4924546;29;20031;-75
2021/08/22 07:48:02;;;;;;;2.05;1.30;;;;;;;22.21;58.22;101455.53;4924417;29;20085;-75
2021/08/22 07:50:27;;;;;;;1.58;1.20;;;;;;;22.23;58.19;101458.16;4939426;29;20027;-75
2021/08/22 07:52:53;;;;;;;1.70;0.98;;;;;;;22.19;58.19;101456.47;4957311;29;20058;-75
2021/08/22 07:55:20;;;;;;;1.17;0.93;;;;;;;22.20;58.06;101452.94;4957420;29;20027;-74
2021/08/22 07:57:45;;;;;;;0.93;0.85;;;;;;;22.23;58.08;101455.53;4924463;29;20118;-75
2021/08/22 08:00:11;;;;;;;1.35;0.93;;;;;;;22.20;58.05;101459.06;4940046;29;20455;-75
2021/08/22 08:02:36;;;;;;;1.95;1.35;;;;;;;22.24;57.95;101463.44;4940308;29;20056;-75
2021/08/22 08:05:02;;;;;;;1.13;0.80;;;;;;;22.21;57.99;101460.81;4940160;29;20043;-75
2021/08/22 08:07:27;;;;;;;1.35;0.90;;;;;;;22.24;58.09;101468.69;4940165;29;20023;-75
2021/08/22 08:09:52;;;;;;;1.55;0.98;;;;;;;22.24;58.08;101473.97;4940005;29;20536;-75
2021/08/22 08:12:18;;;;;;;1.13;0.80;;;;;;;22.19;58.12;101457.34;4939716;29;20066;-75
2021/08/22 08:14:43;;;;;;;0.88;0.70;;;;;;;22.24;58.08;101473.97;4925312;29;20031;-75
2021/08/22 08:17:09;;;;;;;1.40;0.95;;;;;;;22.21;58.08;101473.13;4941853;29;20039;-75
2021/08/22 08:19:34;;;;;;;0.82;0.75;;;;;;;22.23;58.19;101477.47;4940568;29;20499;-75
2021/08/22 08:21:59;;;;;;;1.60;1.08;;;;;;;22.23;58.09;101480.13;4956936;29;20545;-75
2021/08/22 08:27:27;;;;;;;1.60;1.20;;;;;;;22.23;58.13;101480.13;4933023;29;20074;-75
2021/08/22 08:29:53;;;;;;;1.35;0.80;;;;;;;22.23;58.13;101482.75;4924401;29;20039;-75
2021/08/22 08:32:23;;;;;;;1.30;0.77;;;;;;;22.09;58.10;101461.81;4940868;29;20466;-75
2021/08/22 08:34:49;;;;;;;0.90;0.80;;;;;;;22.20;58.23;101476.66;4925462;29;20039;-75
2021/08/22 08:37:20;;;;;;;1.05;0.70;;;;;;;22.23;58.13;101482.75;4957321;29;20121;-75
2021/08/22 08:39:46;;;;;;;1.55;1.20;;;;;;;22.22;58.27;101477.50;4940908;29;20059;-75
2021/08/22 08:42:25;;;;;;;1.40;1.00;;;;;;;22.14;58.15;101464.41;4958908;29;20035;-75
2021/08/22 08:44:57;;;;;;;2.00;1.05;;;;;;;22.26;58.18;101484.50;4958306;29;20027;-74
2021/08/22 08:47:28;;;;;;;0.82;0.70;;;;;;;22.26;58.19;101490.63;4940931;29;20069;-74
2021/08/22 08:49:57;;;;;;;0.90;0.75;;;;;;;22.27;58.10;101500.28;4925006;29;20393;-75
2021/08/22 08:52:51;;;;;;;1.00;0.90;;;;;;;22.27;58.26;101489.75;4956584;29;20031;-75
2021/08/22 08:55:29;;;;;;;1.17;0.95;;;;;;;22.27;58.29;101497.66;4944903;29;20035;-75
2021/08/22 08:57:57;;;;;;;1.55;1.20;;;;;;;22.24;58.33;101496.81;4938852;29;20027;-75
2021/08/22 09:00:29;;;;;;;1.23;0.90;;;;;;;22.28;58.31;101501.16;4956246;29;20035;-75
2021/08/22 09:02:56;;;;;;;1.00;0.80;;;;;;;22.27;58.43;101502.91;4955990;28;20031;-75
2021/08/22 09:05:39;;;;;;;0.93;0.77;;;;;;;22.28;58.41;101506.44;4938859;29;20058;-75
2021/08/22 09:08:26;;;;;;;1.25;0.90;;;;;;;22.28;58.55;101509.06;4938863;29;20030;-75
2021/08/22 09:11:15;;;;;;;1.30;0.90;;;;;;;22.29;58.37;101505.53;4955920;29;20031;-75
2021/08/22 09:14:18;;;;;;;1.55;1.05;;;;;;;22.28;58.48;101507.31;4938656;29;20035;-75
2021/08/22 09:17:17;;;;;;;1.35;0.90;;;;;;;22.29;58.44;101513.44;4955871;29;20023;-75
2021/08/22 09:20:20;;;;;;;1.15;0.90;;;;;;;22.29;58.45;101511.69;4938929;29;20031;-74
2021/08/22 09:23:23;;;;;;;1.15;0.93;;;;;;;22.30;58.47;101513.44;4955649;29;20506;-75
2021/08/22 09:26:25;;;;;;;1.67;1.05;;;;;;;22.30;58.49;101516.06;4955889;29;20473;-75
2021/08/22 09:29:12;;;;;;;1.20;0.98;;;;;;;22.31;58.39;101503.78;4938559;29;20054;-75
2021/08/22 09:32:15;;;;;;;1.48;0.80;;;;;;;22.33;58.41;101510.75;4938604;29;20474;-75
2021/08/22 09:35:19;;;;;;;1.15;0.85;;;;;;;22.33;58.53;101515.16;4938409;29;20035;-75
2021/08/22 09:38:12;;;;;;;1.05;0.73;;;;;;;22.33;58.54;101515.16;4938275;29;20406;-75
2021/08/22 09:40:59;;;;;;;1.30;1.00;;;;;;;22.34;58.44;101522.16;4938208;29;20031;-75
2021/08/22 09:44:02;;;;;;;1.63;1.17;;;;;;;22.33;58.58;101517.81;4938441;29;20039;-75
2021/08/22 09:46:45;;;;;;;0.82;0.77;;;;;;;22.32;58.52;101522.19;4938338;29;20031;-75
2021/08/22 09:50:08;;;;;;;1.88;1.13;;;;;;;22.31;58.61;101528.34;4938259;29;20023;-75
2021/08/22 09:52:52;;;;;;;1.20;1.05;;;;;;;22.32;58.58;101530.09;4843976;29;20124;-74
2021/08/22 09:55:55;;;;;;;1.38;0.93;;;;;;;22.33;58.61;101537.09;4955716;29;20446;-74
2021/08/22 09:58:58;;;;;;;1.07;0.80;;;;;;;22.33;58.64;101538.88;4955483;29;20019;-75
2021/08/22 10:01:36;;;;;;;1.05;0.90;;;;;;;22.33;58.65;101544.16;4937993;29;20055;-75
2021/08/22 10:04:38;;;;;;;0.70;0.57;;;;;;;22.33;58.59;101545.00;4955449;29;20027;-74
2021/08/22 10:07:27;;;;;;;1.48;0.90;;;;;;;22.31;58.54;101533.63;4955385;29;20055;-75
2021/08/22 10:09:57;;;;;;;1.42;1.00;;;;;;;22.26;58.56;101530.16;4938347;29;20038;-75
2021/08/22 10:12:22;;;;;;;1.05;0.77;;;;;;;22.28;58.62;101531.00;4955491;29;20418;-75
2021/08/22 10:14:48;;;;;;;1.45;1.05;;;;;;;22.30;58.72;101539.78;4957749;28;20129;-75
2021/08/22 10:17:21;;;;;;;1.10;0.73;;;;;;;22.32;58.60;101538.00;4959259;29;20027;-75
2021/08/22 10:19:47;;;;;;;1.73;1.08;;;;;;;22.31;58.37;101530.13;4959111;29;20031;-75
2021/08/22 10:22:31;;;;;;;0.88;0.82;;;;;;;22.36;58.44;101533.56;4926154;29;20038;-75
2021/08/22 10:25:02;;;;;;;1.80;0.95;;;;;;;22.32;58.43;101530.09;4941812;29;20054;-75
2021/08/22 10:27:31;;;;;;;1.85;1.08;;;;;;;22.37;58.58;101532.69;4942491;29;20381;-75
2021/08/22 10:30:03;;;;;;;1.05;0.75;;;;;;;22.37;58.58;101538.81;4944140;29;20027;-75
2021/08/22 10:32:57;;;;;;;1.58;1.00;;;;;;;22.38;58.44;101531.78;4943624;29;20023;-75
2021/08/22 10:35:29;;;;;;;;;;;;;;;22.39;58.36;101531.78;4942549;29;20170;-75
2021/08/22 10:37:54;;;;;;;1.63;0.90;;;;;;;22.37;58.31;101523.00;4961570;29;19910;-75
2021/08/22 10:40:25;;;;;;;1.20;0.85;;;;;;;22.40;58.26;101528.25;4960490;29;20058;-74
2021/08/22 10:42:56;;;;;;;0.82;0.65;;;;;;;22.40;58.45;101530.88;4958823;29;20155;-75
2021/08/22 10:45:40;;;;;;;1.55;1.00;;;;;;;22.40;58.65;101528.25;4941886;29;20023;-75
2021/08/22 10:48:29;;;;;;;1.40;1.30;;;;;;;22.40;58.39;101533.53;4958591;29;20413;-75
2021/08/22 10:51:08;;;;;;;1.45;1.23;;;;;;;22.41;58.45;101526.50;4940711;29;20536;-75
2021/08/22 10:53:36;;;;;;;2.03;1.33;;;;;;;22.44;58.34;101531.75;4958751;29;20039;-75
2021/08/22 10:56:20;;;;;;;1.10;0.80;;;;;;;22.45;58.49;101536.13;4941221;29;20122;-75
2021/08/22 10:58:58;;;;;;;1.30;1.10;;;;;;;22.45;58.37;101529.09;4958390;29;20050;-75
2021/08/22 11:01:27;;;;;;;1.70;1.10;;;;;;;22.42;58.14;101530.88;4958266;29;20024;-75
2021/08/22 11:04:05;;;;;;;1.27;1.00;;;;;;;22.46;58.32;101536.09;4958210;29;20470;-74
2021/08/22 11:06:30;;;;;;;0.85;0.77;;;;;;;22.45;58.24;101536.13;4940947;29;20125;-75
2021/08/22 11:08:56;;;;;;;1.60;1.02;;;;;;;22.49;58.22;101542.22;4958211;29;20102;-75
2021/08/22 11:11:21;;;;;;;0.82;0.73;;;;;;;22.42;58.02;101533.50;4940920;29;20109;-75
2021/08/22 11:13:58;;;;;;;1.15;0.80;;;;;;;22.52;58.23;101544.81;4925082;29;20117;-75
2021/08/22 11:16:46;;;;;;;1.05;0.88;;;;;;;22.53;58.19;101550.09;4958009;29;20094;-75
2021/08/22 11:19:12;;;;;;;1.20;1.10;;;;;;;22.52;58.33;101545.69;4958214;29;20434;-75
2021/08/22 11:21:38;;;;;;;2.55;1.27;;;;;;;22.52;58.29;101552.72;4958158;29;20031;-75
2021/08/22 11:24:03;;;;;;;1.60;0.93;;;;;;;22.46;58.53;101545.75;4925068;29;20390;-75
2021/08/22 11:26:30;;;;;;;1.52;1.10;;;;;;;22.55;58.25;101558.84;4956750;28;20058;-75
2021/08/22 11:28:57;;;;;;;0.95;0.80;;;;;;;22.54;58.23;101548.31;4924828;29;20035;-75
2021/08/22 11:31:22;;;;;;;1.10;0.80;;;;;;;22.53;58.13;101555.34;4957805;29;20501;-75
2021/08/22 11:33:48;;;;;;;1.17;0.82;;;;;;;22.52;58.14;101560.63;4957905;29;20075;-75
2021/08/22 11:36:14;;;;;;;1.02;0.80;;;;;;;22.52;58.12;101568.56;4940397;29;20055;-74
2021/08/22 11:38:39;;;;;;;1.02;0.80;;;;;;;22.51;58.15;101559.75;4941857;29;20470;-73
2021/08/22 11:41:08;;;;;;;2.45;0.90;;;;;;;22.51;58.22;101567.69;4917622;29;20031;-73